Waterford, New York
Current Conditions -  °F | °C
As of 3:51 PM on Tuesday 27 Jan 2015 (Local Time) from KALB Reporting Station
Light Snow Light Snow  
Wind Chill: -2°   Ceiling: 2400
Heat Index: 12°   Visibility: 3mi
Dew Point:   Wind: 12mph
Humidity: 73%   Direction: 20°NNE
Pressure: 29.82"   Gusts: NA
Location:  42.79°N, 73.68°W
Report Text: KALB 272051Z 02010KT 3SM -SN FEW017 BKN024 OVC039 M11/M15 A2982 RMK AO2 SLP103 P0001 60009 T11111150 53007
Loading
Personal Weather Stations






























Interactive Weather Map New forecast layout! Learn more

10-Day Weather Forecast

Advertisements
Track Severe Weather on mobile